»·PEaware :: N6262K KSBA-KBFL

N6262K :: KSBA-KBFL

FLIGHT INFORMATION

Flight Status: Arrived
Operator: Privately registered:
United States
More flights under this callsign
Pilot: Judson K. (15650)
Aircraft: PIPER PA-30 TWIN COMANCHE
(PA30)
More flights by this aircraft type
Origin: KSBA Santa Barbara Mun
United States
Destination: KBFL Meadows
United States
More flights between these airports :: More routes between these airports
Route: KWANG5 RZS GMN FASTO2
File this flight plan on PilotEdge
Remarks:
Altitude:
(Current/Filed)
13,000ft
Speed:
(Current/Filed)
220kts
Departed: 10-Jan-18 10:01 PM
Arrived: 10-Jan-18 11:00 PM
Distance/Time
Traveled:
72nm/0:58
Distance/Time
To Go:
Arrived

Flight Plot

Page will automatically refresh every two minutes.

Flight plan parsing failed; only flown route is shown


Map Options




Map Legend


Flown Route
Filed Route
Departure Airport
Arrival Airport
Navaid (VOR, NDB)
Fix

Horizontal Profiles

Position Reports

Time Latitude Longitude Heading Altitude Ground
Speed
10-Jan-18 21:49 34.432568 -119.835090 71 12ft 0kts
10-Jan-18 21:50 34.432568 -119.835090 71 12ft 0kts
10-Jan-18 21:51 34.432568 -119.835090 71 12ft 0kts
10-Jan-18 21:52 34.432568 -119.835090 71 12ft 0kts
10-Jan-18 21:53 34.432568 -119.835090 71 12ft 0kts
10-Jan-18 21:54 34.432568 -119.835090 71 12ft 0kts
10-Jan-18 21:55 34.432568 -119.835090 71 12ft 0kts
10-Jan-18 21:56 34.432568 -119.835090 71 12ft 0kts
10-Jan-18 21:57 34.432568 -119.835090 71 12ft 0kts
10-Jan-18 21:58 34.432568 -119.835090 71 12ft 0kts
10-Jan-18 21:59 34.432568 -119.835090 71 12ft 0kts
10-Jan-18 22:00 34.432576 -119.834983 110 12ft 6kts
10-Jan-18 22:01 34.431204 -119.835293 177 12ft 27kts
10-Jan-18 22:02 34.428676 -119.834583 189 9ft 0kts
10-Jan-18 22:03 34.428676 -119.834583 189 9ft 0kts
10-Jan-18 22:04 34.428676 -119.834583 189 9ft 0kts
10-Jan-18 22:05 34.428676 -119.834583 189 9ft 0kts
10-Jan-18 22:06 34.427885 -119.834899 267 9ft 2kts
10-Jan-18 22:07 34.426926 -119.860975 261 668ft 122kts
10-Jan-18 22:08 34.406295 -119.874273 119 2084ft 127kts
10-Jan-18 22:09 34.408197 -119.832551 86 3490ft 127kts
10-Jan-18 22:10 34.407917 -119.790167 97 4821ft 126kts
10-Jan-18 22:11 34.399430 -119.749038 115 6054ft 130kts
10-Jan-18 22:12 34.383945 -119.709288 115 7264ft 131kts
10-Jan-18 22:13 34.367882 -119.668289 111 8346ft 149kts
10-Jan-18 22:14 34.349279 -119.620597 106 9245ft 157kts
10-Jan-18 22:15 34.330800 -119.572803 105 10221ft 157kts
10-Jan-18 22:16 34.311843 -119.524952 107 11146ft 159kts
10-Jan-18 22:17 34.324201 -119.493651 345 12025ft 100kts
10-Jan-18 22:18 34.336757 -119.523533 302 12910ft 104kts
10-Jan-18 22:19 34.351560 -119.558234 309 12986ft 122kts
10-Jan-18 22:20 34.371689 -119.591860 314 12984ft 124kts
10-Jan-18 22:21 34.393958 -119.623595 317 12984ft 124kts
10-Jan-18 22:22 34.417202 -119.654336 318 12983ft 122kts
10-Jan-18 22:23 34.439658 -119.683037 318 12982ft 115kts
10-Jan-18 22:24 34.461821 -119.711050 318 12983ft 116kts
10-Jan-18 22:25 34.485004 -119.739982 318 12983ft 122kts
10-Jan-18 22:26 34.512074 -119.764182 332 12982ft 121kts
10-Jan-18 22:27 34.542764 -119.759410 47 12983ft 156kts
10-Jan-18 22:28 34.562438 -119.712173 42 12981ft 153kts
10-Jan-18 22:29 34.582507 -119.665117 51 12982ft 160kts
10-Jan-18 22:30 34.599189 -119.614434 55 12982ft 162kts
10-Jan-18 22:31 34.614351 -119.562646 56 12982ft 163kts
10-Jan-18 22:32 34.628969 -119.510668 56 12981ft 163kts
10-Jan-18 22:33 34.643450 -119.458031 57 12982ft 165kts
10-Jan-18 22:34 34.657849 -119.405351 57 12982ft 165kts
10-Jan-18 22:35 34.671982 -119.353244 55 13066ft 158kts
10-Jan-18 22:36 34.685259 -119.303380 54 13066ft 157kts
10-Jan-18 22:37 34.698921 -119.252672 57 13082ft 158kts
10-Jan-18 22:38 34.712602 -119.202078 57 13091ft 156kts
10-Jan-18 22:39 34.726302 -119.151310 60 13087ft 159kts
10-Jan-18 22:40 34.739776 -119.101248 64 12491ft 150kts
10-Jan-18 22:41 34.752406 -119.053888 62 12075ft 146kts
10-Jan-18 22:42 34.764965 -119.007170 64 11632ft 147kts
10-Jan-18 22:43 34.777681 -118.959757 61 11156ft 143kts
10-Jan-18 22:44 34.788073 -118.915067 65 11144ft 135kts
10-Jan-18 22:45 34.795284 -118.865543 69 11170ft 160kts
10-Jan-18 22:46 34.820936 -118.837479 354 11156ft 133kts
10-Jan-18 22:47 34.858267 -118.844143 348 11140ft 136kts
10-Jan-18 22:48 34.894868 -118.852960 347 11147ft 135kts
10-Jan-18 22:49 34.930189 -118.856299 348 11138ft 123kts
10-Jan-18 22:50 34.965283 -118.858818 351 10579ft 135kts
10-Jan-18 22:51 35.003918 -118.860783 349 9630ft 139kts
10-Jan-18 22:52 35.043106 -118.860814 356 8659ft 143kts
10-Jan-18 22:53 35.085169 -118.860813 358 7713ft 161kts
10-Jan-18 22:54 35.128863 -118.860705 358 6821ft 163kts
10-Jan-18 22:55 35.174779 -118.861489 0 5724ft 166kts
10-Jan-18 22:56 35.220104 -118.855846 9 4860ft 152kts
10-Jan-18 22:57 35.258732 -118.847145 348 4918ft 144kts
10-Jan-18 22:58 35.287532 -118.879439 315 4466ft 132kts
10-Jan-18 22:59 35.310101 -118.906930 316 3890ft 102kts
10-Jan-18 23:00 35.330234 -118.931070 316 3338ft 101kts
10-Jan-18 23:01 35.350556 -118.955521 316 2776ft 108kts
10-Jan-18 23:02 35.369420 -118.978306 317 2238ft 90kts
10-Jan-18 23:03 35.387449 -119.000059 315 1714ft 91kts
10-Jan-18 23:04 35.405473 -119.021738 318 1237ft 91kts
10-Jan-18 23:05 35.423202 -119.043360 316 749ft 89kts
10-Jan-18 23:06 35.438741 -119.062096 318 492ft 31kts
10-Jan-18 23:07 35.440151 -119.062679 0 496ft 0kts
10-Jan-18 23:08 35.437376 -119.058203 143 494ft 24kts
10-Jan-18 23:09 35.434827 -119.054269 56 494ft 11kts
10-Jan-18 23:10 35.435308 -119.053197 9 499ft 0kts

Navigation Log

Ident Type
Flight plan parsing failed, navigation log unavailable